Time;durP1;ratioP1;P1;durP2;ratioP2;P2;SDS_P1;SDS_P2;PMS_P1;PMS_P2;Temp;Humidity;BMP_temperature;BMP_pressure;BME280_temperature;BME280_humidity;BME280_pressure;Samples;Min_cycle;Max_cycle;Signal;HPM_P1;HPM_P2
2020/12/15 00:00:06;;;;;;;28.33;13.87;;;2.00;99.90;;;;;;4383927;32;20170;-72
2020/12/15 00:02:33;;;;;;;28.43;13.47;;;2.10;99.90;;;;;;4387341;32;20171;-70
2020/12/15 00:04:59;;;;;;;29.50;14.63;;;2.10;99.90;;;;;;4389224;32;20607;-71
2020/12/15 00:07:26;;;;;;;25.10;13.57;;;2.20;99.90;;;;;;4383214;32;20156;-71
2020/12/15 00:09:54;;;;;;;30.27;14.40;;;2.10;99.90;;;;;;4391045;32;20521;-72
2020/12/15 00:12:20;;;;;;;27.40;13.37;;;2.10;99.90;;;;;;4383699;32;20169;-71
2020/12/15 00:14:46;;;;;;;26.57;13.70;;;2.00;99.90;;;;;;4385017;32;20231;-71
2020/12/15 00:17:13;;;;;;;29.30;14.40;;;2.00;99.90;;;;;;4389974;32;20225;-73
2020/12/15 00:19:40;;;;;;;27.20;14.07;;;2.10;99.90;;;;;;4380963;32;20148;-71
2020/12/15 00:22:07;;;;;;;26.63;14.50;;;2.00;99.90;;;;;;4391995;32;20148;-71
2020/12/15 00:24:33;;;;;;;26.40;13.60;;;2.00;99.90;;;;;;4388014;32;20567;-71
2020/12/15 00:27:00;;;;;;;28.67;13.37;;;2.10;99.90;;;;;;4388744;32;20194;-73
2020/12/15 00:29:26;;;;;;;28.60;13.83;;;2.00;99.90;;;;;;4390107;32;20208;-73
2020/12/15 00:31:54;;;;;;;27.47;14.40;;;2.10;99.90;;;;;;4370741;32;20164;-74
2020/12/15 00:34:20;;;;;;;26.77;14.33;;;2.10;99.90;;;;;;4378017;32;20412;-73
2020/12/15 00:36:47;;;;;;;29.00;14.17;;;2.10;99.90;;;;;;4389872;32;20163;-73
2020/12/15 00:39:13;;;;;;;29.87;14.70;;;2.10;99.90;;;;;;4382843;32;20266;-72
2020/12/15 00:41:40;;;;;;;28.27;14.43;;;2.10;99.90;;;;;;4371103;32;20227;-76
2020/12/15 00:44:06;;;;;;;30.23;14.70;;;2.10;99.90;;;;;;4392607;32;20209;-73
2020/12/15 00:46:33;;;;;;;28.60;14.17;;;2.00;99.90;;;;;;4387451;32;20178;-73
2020/12/15 00:48:59;;;;;;;27.97;13.30;;;1.90;99.90;;;;;;4386957;32;20174;-73
2020/12/15 00:51:26;;;;;;;27.63;14.30;;;1.90;99.90;;;;;;4393068;32;20159;-71
2020/12/15 00:53:52;;;;;;;31.83;14.70;;;1.90;99.90;;;;;;4378754;32;20196;-71
2020/12/15 00:56:18;;;;;;;28.10;14.27;;;1.80;99.90;;;;;;4377319;32;20143;-72
2020/12/15 00:58:45;;;;;;;34.63;16.10;;;1.80;99.90;;;;;;4388124;32;20182;-71
2020/12/15 01:01:12;;;;;;;30.10;14.07;;;1.80;99.90;;;;;;4391360;32;20174;-73
2020/12/15 01:03:39;;;;;;;30.03;14.63;;;1.80;99.90;;;;;;4383469;32;20363;-72
2020/12/15 01:06:07;;;;;;;29.43;13.83;;;1.80;99.90;;;;;;4392435;32;20257;-72
2020/12/15 01:08:34;;;;;;;30.53;14.73;;;1.80;99.90;;;;;;4387679;32;20170;-72
2020/12/15 01:11:13;;;;;;;30.43;14.37;;;1.70;99.90;;;;;;4389026;32;20451;-72
2020/12/15 01:13:39;;;;;;;31.63;14.97;;;1.70;99.90;;;;;;4383538;32;20160;-72
2020/12/15 01:16:06;;;;;;;32.93;15.23;;;1.70;99.90;;;;;;4393603;32;20145;-72
2020/12/15 01:18:34;;;;;;;31.33;15.43;;;1.70;99.90;;;;;;4387105;32;20179;-72
2020/12/15 01:21:02;;;;;;;30.77;15.33;;;1.70;99.90;;;;;;4377680;32;20171;-73
2020/12/15 01:23:29;;;;;;;33.27;15.17;;;1.70;99.90;;;;;;4390147;32;20159;-73
2020/12/15 01:25:56;;;;;;;33.13;16.33;;;1.80;99.90;;;;;;4383131;32;20162;-72
2020/12/15 01:28:22;;;;;;;27.93;14.47;;;1.80;99.90;;;;;;4390301;32;20182;-72
2020/12/15 01:30:49;;;;;;;29.20;14.53;;;1.90;99.90;;;;;;4388631;32;20159;-73
2020/12/15 01:33:15;;;;;;;30.77;14.50;;;1.80;99.90;;;;;;4377848;32;20179;-72
2020/12/15 01:35:41;;;;;;;29.17;14.33;;;1.80;99.90;;;;;;4379502;32;20156;-71
2020/12/15 01:38:08;;;;;;;29.50;15.07;;;1.70;99.90;;;;;;4384018;32;20151;-71
2020/12/15 01:40:35;;;;;;;32.23;14.83;;;1.70;99.90;;;;;;4390366;32;20178;-72
2020/12/15 01:43:01;;;;;;;26.90;14.10;;;1.70;99.90;;;;;;4391196;32;20151;-72
2020/12/15 01:45:28;;;;;;;31.80;15.53;;;1.80;99.90;;;;;;4383210;32;20560;-72
2020/12/15 01:47:54;;;;;;;31.37;14.97;;;1.80;99.90;;;;;;4394162;32;20179;-71
2020/12/15 01:50:21;;;;;;;27.77;13.87;;;1.80;99.90;;;;;;4385423;32;20148;-72
2020/12/15 01:52:48;;;;;;;27.60;14.20;;;1.80;99.90;;;;;;4388859;32;20156;-72
2020/12/15 01:55:17;;;;;;;33.23;15.50;;;1.80;99.90;;;;;;4392440;32;20152;-72
2020/12/15 01:57:45;;;;;;;29.60;14.60;;;1.80;99.90;;;;;;4382611;32;20159;-72
2020/12/15 02:00:12;;;;;;;29.57;15.10;;;1.70;99.90;;;;;;4393377;32;20156;-71
2020/12/15 02:02:41;;;;;;;28.90;14.83;;;1.70;99.90;;;;;;4384032;32;20423;-75
2020/12/15 02:05:09;;;;;;;28.10;14.43;;;1.80;99.90;;;;;;4386544;32;20159;-72
2020/12/15 02:07:35;;;;;;;27.13;14.37;;;1.90;99.90;;;;;;4378625;32;20190;-72
2020/12/15 02:10:04;;;;;;;32.73;15.00;;;1.80;99.90;;;;;;4378614;32;20160;-73
2020/12/15 02:12:31;;;;;;;31.50;14.83;;;1.90;99.90;;;;;;4378336;32;20270;-72
2020/12/15 02:14:57;;;;;;;28.30;14.67;;;1.80;99.90;;;;;;4378273;32;20168;-72
2020/12/15 02:17:24;;;;;;;28.40;14.80;;;1.70;99.90;;;;;;4380117;32;20174;-72
2020/12/15 02:20:07;;;;;;;32.03;14.13;;;1.70;99.90;;;;;;4380396;32;20144;-72
2020/12/15 02:22:35;;;;;;;28.27;14.57;;;1.80;99.90;;;;;;4381431;32;20140;-73
2020/12/15 02:25:09;;;;;;;31.33;14.70;;;1.70;99.90;;;;;;4381421;32;20143;-72
2020/12/15 02:27:35;;;;;;;31.77;15.67;;;1.70;99.90;;;;;;4379997;32;20148;-72
2020/12/15 02:30:05;;;;;;;30.83;14.90;;;1.70;99.90;;;;;;4382822;32;20225;-72
2020/12/15 02:32:35;;;;;;;28.73;14.60;;;1.70;99.90;;;;;;4386153;32;20175;-72
2020/12/15 02:35:03;;;;;;;31.03;15.43;;;1.70;99.90;;;;;;4380356;32;20430;-72
2020/12/15 02:37:29;;;;;;;34.87;16.33;;;1.70;99.90;;;;;;4379769;32;20186;-72
2020/12/15 02:40:00;;;;;;;30.03;14.67;;;1.80;99.90;;;;;;4380114;32;20197;-72
2020/12/15 02:42:30;;;;;;;32.10;15.37;;;1.70;99.90;;;;;;4381487;32;20167;-71
2020/12/15 02:44:58;;;;;;;31.63;15.57;;;1.70;99.90;;;;;;4364943;32;20148;-74
2020/12/15 02:47:25;;;;;;;33.07;14.87;;;1.80;99.90;;;;;;4374077;32;20148;-73
2020/12/15 02:49:51;;;;;;;30.43;15.27;;;1.80;99.90;;;;;;4361149;32;20396;-71
2020/12/15 02:52:19;;;;;;;30.17;14.33;;;1.70;99.90;;;;;;4367278;32;20210;-71
2020/12/15 02:54:50;;;;;;;29.93;14.77;;;1.80;99.90;;;;;;4373792;32;20163;-72
2020/12/15 02:57:16;;;;;;;33.43;14.87;;;1.70;99.90;;;;;;4374562;32;20226;-72
2020/12/15 02:59:44;;;;;;;35.87;15.00;;;1.70;99.90;;;;;;4367853;32;20246;-72
2020/12/15 03:02:11;;;;;;;32.90;15.00;;;1.50;99.90;;;;;;4379966;32;20209;-72
2020/12/15 03:04:38;;;;;;;33.17;14.83;;;1.60;99.90;;;;;;4375872;32;20153;-72
2020/12/15 03:07:05;;;;;;;30.47;14.80;;;1.50;99.90;;;;;;4371846;32;20198;-72
2020/12/15 03:09:31;;;;;;;32.13;15.53;;;1.50;99.90;;;;;;4378943;32;20517;-72
2020/12/15 03:12:02;;;;;;;34.40;15.17;;;1.50;99.90;;;;;;4368217;32;20190;-72
2020/12/15 03:14:29;;;;;;;33.40;14.87;;;1.50;99.90;;;;;;4375123;32;20599;-72
2020/12/15 03:16:55;;;;;;;32.97;16.13;;;1.40;99.90;;;;;;4370676;32;20175;-72
2020/12/15 03:19:22;;;;;;;33.77;15.53;;;1.40;99.90;;;;;;4380547;32;20478;-73
2020/12/15 03:21:48;;;;;;;32.67;15.57;;;1.30;99.90;;;;;;4367177;32;20236;-72
2020/12/15 03:24:15;;;;;;;30.80;15.33;;;1.30;99.90;;;;;;4378843;32;20553;-72
2020/12/15 03:26:41;;;;;;;28.70;13.97;;;1.30;99.90;;;;;;4374450;32;20155;-72
2020/12/15 03:29:07;;;;;;;32.43;14.07;;;1.20;99.90;;;;;;4371712;32;20494;-72
2020/12/15 03:31:34;;;;;;;29.57;14.10;;;1.10;99.90;;;;;;4379103;32;20171;-71
2020/12/15 03:34:00;;;;;;;32.67;14.37;;;1.10;99.90;;;;;;4367922;32;20145;-71
2020/12/15 03:36:26;;;;;;;30.80;14.27;;;1.00;99.90;;;;;;4375241;32;20210;-72
2020/12/15 03:38:54;;;;;;;33.13;15.43;;;1.00;99.90;;;;;;4371643;32;20211;-71
2020/12/15 03:41:20;;;;;;;32.03;13.87;;;1.00;99.90;;;;;;4380499;32;20206;-70
2020/12/15 03:43:47;;;;;;;35.57;15.63;;;1.10;99.90;;;;;;4367656;32;20207;-72
2020/12/15 03:46:13;;;;;;;37.93;16.70;;;1.00;99.90;;;;;;4378238;32;20233;-70
2020/12/15 03:48:39;;;;;;;35.23;16.27;;;1.00;99.90;;;;;;4374864;32;20211;-71
2020/12/15 03:51:06;;;;;;;38.23;16.33;;;1.10;99.90;;;;;;4371469;32;20171;-71
2020/12/15 03:53:32;;;;;;;36.20;16.27;;;1.10;99.90;;;;;;4378895;32;20166;-71
2020/12/15 03:55:59;;;;;;;37.27;16.13;;;1.10;99.90;;;;;;4365919;32;20144;-71
2020/12/15 03:58:25;;;;;;;40.93;15.87;;;1.10;99.90;;;;;;4375496;32;20507;-71
2020/12/15 04:00:51;;;;;;;42.13;17.63;;;0.90;99.90;;;;;;4369844;32;20187;-71
2020/12/15 04:03:18;;;;;;;41.03;17.30;;;0.90;99.90;;;;;;4369842;32;20148;-74
2020/12/15 04:05:44;;;;;;;43.67;16.47;;;0.90;99.90;;;;;;4375349;32;20163;-73
2020/12/15 04:08:11;;;;;;;44.50;17.10;;;0.90;99.90;;;;;;4376196;32;20148;-73
2020/12/15 04:10:38;;;;;;;39.47;17.03;;;0.80;99.90;;;;;;4368397;32;20439;-72
2020/12/15 04:13:05;;;;;;;41.00;16.47;;;0.80;99.90;;;;;;4377523;32;20152;-71
2020/12/15 04:15:31;;;;;;;42.57;17.37;;;0.80;99.90;;;;;;4366901;32;20201;-72
2020/12/15 04:17:57;;;;;;;40.83;16.70;;;0.80;99.90;;;;;;4362020;33;20486;-71
2020/12/15 04:20:24;;;;;;;40.87;17.03;;;0.80;99.90;;;;;;4362321;33;20156;-72
2020/12/15 04:22:50;;;;;;;43.57;16.83;;;0.90;99.90;;;;;;4363812;33;20211;-71
2020/12/15 04:25:17;;;;;;;42.00;17.10;;;0.90;99.90;;;;;;4359217;33;20136;-72
2020/12/15 04:27:43;;;;;;;46.17;17.63;;;0.80;99.90;;;;;;4364817;33;20176;-71
2020/12/15 04:30:09;;;;;;;46.50;17.90;;;0.80;99.90;;;;;;4365346;33;20136;-72
2020/12/15 04:32:36;;;;;;;45.50;17.80;;;0.80;99.90;;;;;;4363942;33;20133;-72
2020/12/15 04:35:02;;;;;;;50.77;19.03;;;0.70;99.90;;;;;;4363738;33;20165;-71
2020/12/15 04:37:29;;;;;;;43.30;18.93;;;0.70;99.90;;;;;;4363794;33;20168;-71
2020/12/15 04:39:55;;;;;;;49.30;19.17;;;0.80;99.90;;;;;;4363861;33;20140;-70
2020/12/15 04:42:22;;;;;;;45.50;18.47;;;0.80;99.90;;;;;;4365244;33;20145;-74
2020/12/15 04:44:51;;;;;;;46.90;18.37;;;0.80;99.90;;;;;;4363870;33;20164;-73
2020/12/15 04:47:35;;;;;;;45.03;18.03;;;0.70;99.90;;;;;;4363251;33;20160;-72
2020/12/15 04:50:10;;;;;;;47.93;18.17;;;0.80;99.90;;;;;;4363829;33;20163;-73
2020/12/15 04:52:51;;;;;;;49.43;19.00;;;0.90;99.90;;;;;;4363803;33;20190;-73
2020/12/15 04:55:21;;;;;;;50.43;19.97;;;0.90;99.90;;;;;;4364185;33;20144;-73
2020/12/15 04:57:48;;;;;;;45.20;19.47;;;0.90;99.90;;;;;;4365468;32;20144;-73
2020/12/15 05:00:16;;;;;;;47.43;18.53;;;1.00;99.90;;;;;;4383348;32;20144;-73
2020/12/15 05:02:48;;;;;;;41.43;18.20;;;1.00;99.90;;;;;;4379741;32;20167;-74
2020/12/15 05:05:15;;;;;;;42.23;18.43;;;1.10;99.90;;;;;;4380281;32;20167;-72
2020/12/15 05:07:45;;;;;;;42.07;18.67;;;1.10;99.90;;;;;;4378622;32;20241;-73
2020/12/15 05:10:14;;;;;;;42.73;18.30;;;1.10;99.90;;;;;;4366058;32;20479;-73
2020/12/15 05:12:43;;;;;;;43.40;18.53;;;1.10;99.90;;;;;;4366577;32;20373;-73
2020/12/15 05:15:13;;;;;;;42.00;19.10;;;1.20;99.90;;;;;;4365929;32;20530;-71
2020/12/15 05:17:41;;;;;;;38.57;18.60;;;1.20;99.90;;;;;;4367345;32;20164;-72
2020/12/15 05:20:09;;;;;;;39.23;17.50;;;1.20;99.90;;;;;;4366362;32;20140;-71
2020/12/15 05:22:43;;;;;;;38.07;17.60;;;1.20;99.90;;;;;;4366144;32;20144;-72
2020/12/15 05:25:29;;;;;;;40.30;18.73;;;1.10;99.90;;;;;;4368015;32;20151;-72
2020/12/15 05:28:00;;;;;;;40.93;18.27;;;1.20;99.90;;;;;;4367654;32;20152;-72
2020/12/15 05:30:32;;;;;;;38.37;17.23;;;1.30;99.90;;;;;;4365906;32;20144;-72
2020/12/15 05:32:59;;;;;;;41.27;18.43;;;1.30;99.90;;;;;;4367362;32;20140;-71
2020/12/15 05:35:33;;;;;;;40.00;17.57;;;1.10;99.90;;;;;;4367443;32;20502;-71
2020/12/15 05:38:04;;;;;;;37.90;17.97;;;0.90;99.90;;;;;;4365732;32;20195;-72
2020/12/15 05:40:32;;;;;;;38.43;17.20;;;0.90;99.90;;;;;;4365783;32;20228;-71
2020/12/15 05:43:00;;;;;;;43.73;19.70;;;0.90;99.90;;;;;;4365816;32;20214;-71
2020/12/15 05:45:28;;;;;;;40.93;19.53;;;0.90;99.90;;;;;;4367258;32;20140;-72
2020/12/15 05:48:08;;;;;;;39.90;18.10;;;0.90;99.90;;;;;;4365701;32;20149;-71
2020/12/15 05:50:36;;;;;;;40.03;18.33;;;0.80;99.90;;;;;;4365532;32;20474;-72
2020/12/15 05:53:07;;;;;;;41.20;18.37;;;0.80;99.90;;;;;;4365589;32;20155;-73
2020/12/15 05:55:33;;;;;;;41.57;19.47;;;0.70;99.90;;;;;;4367129;32;20175;-73
2020/12/15 05:58:01;;;;;;;48.70;20.70;;;0.70;99.90;;;;;;4366579;32;20172;-73
2020/12/15 06:00:30;;;;;;;49.30;20.53;;;0.80;99.90;;;;;;4365139;32;20486;-73
2020/12/15 06:02:58;;;;;;;44.00;19.80;;;0.80;99.90;;;;;;4365562;32;20174;-73
2020/12/15 06:05:27;;;;;;;45.53;19.83;;;0.90;99.90;;;;;;4365921;32;20181;-73
2020/12/15 06:07:56;;;;;;;44.87;18.93;;;0.90;99.90;;;;;;4365452;32;20144;-73
2020/12/15 06:10:23;;;;;;;43.60;19.93;;;0.90;99.90;;;;;;4365275;32;20169;-72
2020/12/15 06:12:51;;;;;;;43.80;20.07;;;1.00;99.90;;;;;;4366965;32;20144;-73
2020/12/15 06:15:18;;;;;;;47.57;20.10;;;1.00;99.90;;;;;;4365196;32;20223;-73
2020/12/15 06:17:50;;;;;;;46.57;20.53;;;1.00;99.90;;;;;;4365308;32;20148;-73
2020/12/15 06:20:21;;;;;;;46.47;20.17;;;1.00;99.90;;;;;;4366365;32;20144;-72
2020/12/15 06:22:52;;;;;;;47.73;19.33;;;1.00;99.90;;;;;;4366473;32;20144;-73
2020/12/15 06:25:33;;;;;;;43.77;18.87;;;0.90;99.90;;;;;;4366575;32;20390;-73
2020/12/15 06:28:06;;;;;;;42.73;17.00;;;0.90;99.90;;;;;;4365741;32;20148;-74
2020/12/15 06:30:35;;;;;;;46.20;18.70;;;0.70;99.90;;;;;;4366445;32;20166;-72
2020/12/15 06:33:05;;;;;;;48.17;19.63;;;0.60;99.90;;;;;;4365022;32;20469;-73
2020/12/15 06:35:32;;;;;;;51.17;20.83;;;0.50;99.90;;;;;;4365230;32;20136;-73
2020/12/15 06:38:00;;;;;;;50.90;20.90;;;0.60;99.90;;;;;;4365203;32;20147;-73
2020/12/15 06:40:39;;;;;;;47.97;20.93;;;0.60;99.90;;;;;;4364921;32;20140;-74
2020/12/15 06:43:05;;;;;;;47.57;20.37;;;0.80;99.90;;;;;;4366402;32;20163;-73
2020/12/15 06:45:32;;;;;;;52.33;21.20;;;0.70;99.90;;;;;;4366366;32;20284;-72
2020/12/15 06:48:00;;;;;;;49.40;20.93;;;0.70;99.90;;;;;;4364725;32;20522;-73
2020/12/15 06:50:26;;;;;;;51.43;20.33;;;0.70;99.90;;;;;;4364784;32;20136;-74
2020/12/15 06:52:53;;;;;;;49.30;19.57;;;0.70;99.90;;;;;;4365413;32;20168;-74
2020/12/15 06:55:30;;;;;;;46.23;18.57;;;0.60;99.90;;;;;;4365475;32;20160;-74
2020/12/15 06:58:00;;;;;;;51.40;21.20;;;0.60;99.90;;;;;;4365921;32;20235;-72
2020/12/15 07:00:38;;;;;;;49.67;19.60;;;0.60;99.90;;;;;;4366104;32;20192;-73
2020/12/15 07:03:06;;;;;;;51.20;19.50;;;0.70;99.90;;;;;;4366005;32;20152;-73
2020/12/15 07:05:34;;;;;;;48.53;20.30;;;0.70;99.90;;;;;;4364631;32;20139;-73
2020/12/15 07:08:08;;;;;;;50.17;20.27;;;0.70;99.90;;;;;;4364309;32;20167;-73
2020/12/15 07:10:40;;;;;;;52.60;20.73;;;0.60;99.90;;;;;;4363894;32;20522;-74
2020/12/15 07:13:06;;;;;;;53.23;21.67;;;0.60;99.90;;;;;;4364488;32;20410;-73
2020/12/15 07:15:34;;;;;;;52.43;21.93;;;0.60;99.90;;;;;;4364142;32;20235;-73
2020/12/15 07:18:03;;;;;;;53.07;22.07;;;0.70;99.90;;;;;;4364310;32;20406;-74
2020/12/15 07:20:32;;;;;;;52.87;20.43;;;0.70;99.90;;;;;;4364243;32;20561;-74
2020/12/15 07:22:58;;;;;;;53.70;21.43;;;0.70;99.90;;;;;;4364362;32;20342;-74
2020/12/15 07:25:25;;;;;;;58.60;22.83;;;0.70;99.90;;;;;;4365877;32;20144;-73
2020/12/15 07:27:51;;;;;;;53.43;21.27;;;0.80;99.90;;;;;;4364261;32;20193;-73
2020/12/15 07:30:20;;;;;;;55.77;21.50;;;0.70;99.90;;;;;;4365697;32;20182;-74
2020/12/15 07:32:48;;;;;;;53.80;21.43;;;0.70;99.90;;;;;;4363820;33;20199;-73
2020/12/15 07:35:20;;;;;;;53.00;20.97;;;0.80;99.90;;;;;;4363827;32;20475;-74
2020/12/15 07:37:48;;;;;;;54.17;21.17;;;0.80;99.90;;;;;;4363568;32;20419;-74
2020/12/15 07:40:17;;;;;;;53.20;22.33;;;0.70;99.90;;;;;;4364200;32;20168;-74
2020/12/15 07:42:55;;;;;;;56.17;22.87;;;0.70;99.90;;;;;;4364447;32;20175;-74
2020/12/15 07:45:23;;;;;;;56.53;23.53;;;0.80;99.90;;;;;;4364091;32;20193;-74
2020/12/15 07:47:51;;;;;;;63.67;23.43;;;0.80;99.90;;;;;;4363969;32;20192;-73
2020/12/15 07:50:27;;;;;;;60.70;23.23;;;0.90;99.90;;;;;;4364038;32;20136;-74
2020/12/15 07:52:55;;;;;;;55.43;21.97;;;0.80;99.90;;;;;;4364153;32;20160;-74
2020/12/15 07:55:23;;;;;;;57.10;22.00;;;0.90;99.90;;;;;;4364033;32;20155;-73
2020/12/15 07:57:49;;;;;;;59.97;22.13;;;1.00;99.90;;;;;;4364406;33;20405;-73
2020/12/15 08:00:21;;;;;;;54.83;21.63;;;1.00;99.90;;;;;;4365358;33;20159;-74
2020/12/15 08:02:50;;;;;;;53.43;20.77;;;1.00;99.90;;;;;;4364571;33;20167;-74
2020/12/15 08:05:22;;;;;;;58.33;21.87;;;0.90;99.90;;;;;;4357892;33;20226;-72
2020/12/15 08:07:52;;;;;;;53.47;21.07;;;0.90;99.90;;;;;;4363883;33;20190;-73
2020/12/15 08:10:26;;;;;;;53.77;22.20;;;0.90;99.90;;;;;;4363488;33;20144;-73
2020/12/15 08:12:56;;;;;;;55.47;22.10;;;1.00;99.90;;;;;;4363224;33;20224;-75
2020/12/15 08:15:23;;;;;;;54.03;21.80;;;1.00;99.90;;;;;;4363935;33;20143;-74
2020/12/15 08:17:51;;;;;;;60.27;22.50;;;1.10;99.90;;;;;;4363530;33;20156;-74
2020/12/15 08:20:28;;;;;;;54.97;21.20;;;1.10;99.90;;;;;;4363691;33;20140;-74
2020/12/15 08:23:07;;;;;;;57.47;21.43;;;1.10;99.90;;;;;;4363923;33;20159;-74
2020/12/15 08:25:37;;;;;;;52.83;21.03;;;1.10;99.90;;;;;;4362192;33;20453;-73
2020/12/15 08:28:07;;;;;;;62.97;21.93;;;1.10;99.90;;;;;;4363868;33;20228;-76
2020/12/15 08:30:34;;;;;;;52.43;20.90;;;1.10;99.90;;;;;;4363395;33;20199;-76
2020/12/15 08:33:01;;;;;;;56.53;21.77;;;1.10;99.90;;;;;;4363704;33;20136;-74
2020/12/15 08:35:28;;;;;;;57.63;22.30;;;1.20;99.90;;;;;;4365213;33;20166;-76
2020/12/15 08:38:00;;;;;;;59.57;23.00;;;1.10;99.90;;;;;;4362734;32;20491;-74
2020/12/15 08:40:28;;;;;;;59.07;22.23;;;1.20;99.90;;;;;;4376351;32;20152;-74
2020/12/15 08:42:59;;;;;;;63.47;24.07;;;1.20;99.90;;;;;;4366750;32;20206;-74
2020/12/15 08:45:26;;;;;;;58.73;22.27;;;1.10;99.90;;;;;;4377839;32;20224;-73
2020/12/15 08:47:54;;;;;;;61.77;21.63;;;1.20;99.90;;;;;;4375194;32;20199;-74
2020/12/15 08:50:24;;;;;;;57.63;23.30;;;1.20;99.90;;;;;;4381106;32;20191;-74
2020/12/15 08:52:50;;;;;;;61.90;22.67;;;1.20;99.90;;;;;;4370120;32;20498;-75
2020/12/15 08:55:27;;;;;;;55.83;21.37;;;1.20;99.90;;;;;;4376982;32;20156;-74
2020/12/15 08:57:58;;;;;;;65.67;23.90;;;1.20;99.90;;;;;;4374032;32;20237;-74
2020/12/15 09:00:24;;;;;;;70.27;23.63;;;1.20;99.90;;;;;;4370008;32;20157;-73
2020/12/15 09:02:51;;;;;;;70.17;22.40;;;1.20;99.90;;;;;;4380270;32;20207;-73
2020/12/15 09:05:26;;;;;;;73.73;22.97;;;1.30;99.90;;;;;;4375441;32;20428;-73
2020/12/15 09:07:52;;;;;;;68.70;22.20;;;1.40;99.90;;;;;;4373143;32;20175;-73
2020/12/15 09:10:19;;;;;;;58.50;22.03;;;1.30;99.90;;;;;;4380971;32;20163;-73
2020/12/15 09:12:48;;;;;;;61.87;22.67;;;1.30;99.90;;;;;;4368222;32;20503;-73
2020/12/15 09:15:18;;;;;;;58.13;22.10;;;1.30;99.90;;;;;;4376579;32;20252;-74
2020/12/15 09:17:47;;;;;;;62.00;21.67;;;1.20;99.90;;;;;;4372253;32;20401;-75
2020/12/15 09:20:24;;;;;;;59.27;22.73;;;1.20;99.90;;;;;;4372127;32;20203;-75
2020/12/15 09:22:51;;;;;;;62.47;22.97;;;1.20;99.90;;;;;;4378981;32;20203;-74
2020/12/15 09:25:17;;;;;;;63.53;23.23;;;1.30;99.90;;;;;;4377770;32;20423;-74
2020/12/15 09:27:48;;;;;;;64.90;23.50;;;1.40;99.90;;;;;;4385847;32;20459;-74
2020/12/15 09:30:18;;;;;;;67.93;22.30;;;1.40;99.90;;;;;;4381497;32;20443;-74
2020/12/15 09:32:46;;;;;;;66.90;23.80;;;1.40;99.90;;;;;;4367431;32;20180;-73
2020/12/15 09:35:13;;;;;;;57.03;21.67;;;1.40;99.90;;;;;;4377559;32;20152;-74
2020/12/15 09:37:40;;;;;;;60.80;22.50;;;1.30;99.90;;;;;;4372838;32;20155;-73
2020/12/15 09:40:09;;;;;;;68.03;22.40;;;1.40;99.90;;;;;;4379879;32;20201;-75
2020/12/15 09:42:43;;;;;;;63.50;23.17;;;1.40;99.90;;;;;;4369589;32;20211;-76
2020/12/15 09:45:10;;;;;;;58.87;23.13;;;1.50;99.90;;;;;;4370644;32;20473;-75
2020/12/15 09:47:41;;;;;;;61.70;22.33;;;1.50;99.90;;;;;;4374129;32;20183;-74
2020/12/15 09:50:09;;;;;;;60.97;22.70;;;1.40;99.90;;;;;;4374857;32;20179;-74
2020/12/15 09:52:36;;;;;;;62.17;22.93;;;1.50;99.90;;;;;;4368008;32;20160;-73
2020/12/15 09:55:06;;;;;;;56.60;22.90;;;1.50;99.90;;;;;;4381611;32;20535;-73
2020/12/15 09:57:36;;;;;;;61.00;23.27;;;1.50;99.90;;;;;;4374353;32;20156;-74
2020/12/15 10:00:05;;;;;;;58.77;22.40;;;1.50;99.90;;;;;;4373793;32;20428;-75
2020/12/15 10:02:31;;;;;;;61.40;23.30;;;1.50;99.90;;;;;;4368221;32;20148;-76
2020/12/15 10:04:58;;;;;;;85.70;23.57;;;1.40;99.90;;;;;;4377573;32;20167;-75
2020/12/15 10:07:24;;;;;;;71.20;23.67;;;1.50;99.90;;;;;;4370097;32;20482;-75
2020/12/15 10:09:57;;;;;;;71.97;24.07;;;1.60;99.90;;;;;;4380004;32;20194;-73
2020/12/15 10:12:24;;;;;;;73.67;24.77;;;1.60;99.90;;;;;;4369540;32;20207;-77
2020/12/15 10:14:51;;;;;;;60.67;23.17;;;1.70;99.90;;;;;;4378426;32;20513;-73
2020/12/15 10:17:17;;;;;;;58.90;23.63;;;1.70;99.90;;;;;;4376347;32;20231;-74
2020/12/15 10:19:44;;;;;;;60.63;22.23;;;1.70;99.90;;;;;;4373415;32;20152;-74
2020/12/15 10:22:10;;;;;;;57.63;22.67;;;1.80;99.90;;;;;;4379889;32;20156;-74
2020/12/15 10:24:37;;;;;;;53.03;23.00;;;1.70;99.90;;;;;;4367383;32;20207;-74
2020/12/15 10:27:04;;;;;;;62.57;22.93;;;1.80;99.90;;;;;;4377042;32;20231;-74
2020/12/15 10:29:30;;;;;;;60.57;22.57;;;1.80;99.90;;;;;;4371825;32;20148;-74
2020/12/15 10:31:57;;;;;;;55.73;21.70;;;1.90;99.90;;;;;;4371018;32;20151;-74
2020/12/15 10:34:25;;;;;;;58.80;21.93;;;1.90;99.90;;;;;;4379426;32;20404;-74
2020/12/15 10:36:51;;;;;;;57.80;22.47;;;1.90;99.90;;;;;;4373988;32;20215;-74
2020/12/15 10:39:18;;;;;;;55.37;22.23;;;1.90;99.90;;;;;;4368475;32;20190;-74
2020/12/15 10:41:44;;;;;;;51.70;20.23;;;2.00;99.90;;;;;;4380455;32;20182;-73
2020/12/15 10:44:14;;;;;;;52.23;21.07;;;1.90;99.90;;;;;;4369149;32;20155;-74
2020/12/15 10:46:42;;;;;;;51.73;20.40;;;1.90;99.90;;;;;;4378614;32;20152;-73
2020/12/15 10:49:09;;;;;;;56.90;20.83;;;1.90;99.90;;;;;;4375953;32;20487;-73
2020/12/15 10:51:37;;;;;;;49.77;20.13;;;1.90;99.90;;;;;;4370694;32;20151;-74
2020/12/15 10:54:06;;;;;;;53.30;21.77;;;1.80;99.90;;;;;;4379479;32;20179;-73
2020/12/15 10:56:33;;;;;;;56.37;22.27;;;1.80;99.90;;;;;;4367353;32;20351;-75
2020/12/15 10:59:00;;;;;;;54.57;21.77;;;1.80;99.90;;;;;;4378898;32;20528;-71
2020/12/15 11:01:28;;;;;;;48.27;21.53;;;1.80;99.90;;;;;;4375772;32;20273;-72
2020/12/15 11:03:56;;;;;;;55.57;21.70;;;1.90;99.90;;;;;;4371074;32;20223;-72
2020/12/15 11:06:25;;;;;;;51.70;20.90;;;1.80;99.90;;;;;;4365201;32;20180;-76
2020/12/15 11:08:52;;;;;;;52.60;20.53;;;1.80;99.90;;;;;;4376458;32;20221;-74
2020/12/15 11:11:19;;;;;;;50.70;21.47;;;1.80;99.90;;;;;;4373937;32;20196;-74
2020/12/15 11:13:46;;;;;;;51.53;20.77;;;1.90;99.90;;;;;;4371527;32;20206;-73
2020/12/15 11:16:19;;;;;;;47.23;21.10;;;1.80;99.90;;;;;;4371929;32;20186;-73
2020/12/15 11:18:46;;;;;;;51.87;21.23;;;1.90;99.90;;;;;;4378678;32;20167;-73
2020/12/15 11:21:13;;;;;;;54.00;21.27;;;1.90;99.90;;;;;;4369115;32;20167;-72
2020/12/15 11:23:40;;;;;;;54.53;21.87;;;1.80;99.90;;;;;;4377600;32;20222;-73
2020/12/15 11:26:14;;;;;;;56.63;21.80;;;1.70;99.90;;;;;;4376099;32;20183;-72
2020/12/15 11:28:41;;;;;;;52.87;21.53;;;1.60;99.90;;;;;;4378074;32;20391;-71
2020/12/15 11:31:07;;;;;;;57.43;22.63;;;1.60;99.90;;;;;;4367253;32;20166;-72
2020/12/15 11:33:34;;;;;;;60.37;23.37;;;1.70;99.90;;;;;;4380061;32;20166;-74
2020/12/15 11:36:01;;;;;;;62.57;24.30;;;1.90;99.90;;;;;;4371100;32;20160;-72
2020/12/15 11:38:28;;;;;;;54.47;21.17;;;2.00;99.90;;;;;;4376756;32;20236;-71
2020/12/15 11:40:54;;;;;;;55.53;22.23;;;2.00;99.90;;;;;;4372236;32;20176;-72
2020/12/15 11:43:21;;;;;;;51.67;22.43;;;2.20;99.90;;;;;;4371429;32;20222;-74
2020/12/15 11:45:47;;;;;;;54.20;20.97;;;2.20;99.90;;;;;;4370898;32;20153;-71
2020/12/15 11:48:14;;;;;;;49.03;20.57;;;2.00;99.90;;;;;;4373893;32;20526;-71
2020/12/15 11:50:40;;;;;;;52.03;21.37;;;1.80;99.90;;;;;;4375852;32;20156;-73
2020/12/15 11:53:06;;;;;;;50.53;20.80;;;1.70;99.90;;;;;;4367114;32;20219;-73
2020/12/15 11:55:33;;;;;;;51.03;20.80;;;1.70;99.90;;;;;;4372612;32;20203;-72
2020/12/15 11:58:00;;;;;;;55.20;21.97;;;1.70;99.90;;;;;;4368378;32;20178;-74
2020/12/15 12:00:26;;;;;;;53.37;22.00;;;1.70;99.90;;;;;;4375107;32;20175;-72
2020/12/15 12:02:52;;;;;;;53.10;21.23;;;1.70;99.90;;;;;;4378317;32;20182;-73
2020/12/15 12:05:20;;;;;;;57.23;22.37;;;1.70;99.90;;;;;;4368187;32;20205;-73
2020/12/15 12:07:49;;;;;;;55.63;21.80;;;1.70;99.90;;;;;;4380128;32;20524;-73
2020/12/15 12:10:16;;;;;;;54.00;21.60;;;1.70;99.90;;;;;;4368392;32;20175;-73
2020/12/15 12:12:42;;;;;;;49.10;20.83;;;1.80;99.90;;;;;;4377689;32;20148;-73
2020/12/15 12:15:09;;;;;;;54.87;21.27;;;1.80;99.90;;;;;;4375059;32;20255;-74
2020/12/15 12:17:35;;;;;;;51.30;21.70;;;1.80;99.90;;;;;;4370849;32;20523;-73
2020/12/15 12:20:05;;;;;;;57.87;21.90;;;1.80;99.90;;;;;;4381586;32;20152;-73
2020/12/15 12:22:31;;;;;;;55.27;22.20;;;1.90;99.90;;;;;;4369736;32;20159;-73
2020/12/15 12:24:58;;;;;;;59.07;23.53;;;1.90;99.90;;;;;;4378885;32;20144;-72
2020/12/15 12:27:25;;;;;;;56.77;22.47;;;1.90;99.90;;;;;;4371642;32;20168;-71
2020/12/15 12:29:52;;;;;;;54.90;22.80;;;2.00;99.90;;;;;;4381530;32;20508;-72
2020/12/15 12:32:19;;;;;;;52.97;22.70;;;2.00;99.90;;;;;;4380225;32;20195;-73
2020/12/15 12:34:46;;;;;;;51.87;21.57;;;2.00;99.90;;;;;;4375973;32;20156;-73
2020/12/15 12:37:12;;;;;;;51.20;21.80;;;2.00;99.90;;;;;;4376431;32;20212;-73
2020/12/15 12:39:40;;;;;;;50.80;21.73;;;2.00;99.90;;;;;;4381640;32;20209;-73